sensor_id;sensor_type;location;lat;lon;timestamp;P1;durP1;ratioP1;P2;durP2;ratioP2
11819;SDS011;5967;48.944;9.240;2022-08-16T00:02:21;3.37;;;2.60;;
11819;SDS011;5967;48.944;9.240;2022-08-16T00:04:47;4.43;;;2.63;;
11819;SDS011;5967;48.944;9.240;2022-08-16T00:07:13;4.83;;;2.67;;
11819;SDS011;5967;48.944;9.240;2022-08-16T00:09:38;3.50;;;2.60;;
11819;SDS011;5967;48.944;9.240;2022-08-16T00:12:04;5.57;;;2.77;;
11819;SDS011;5967;48.944;9.240;2022-08-16T00:14:31;2.93;;;2.50;;
11819;SDS011;5967;48.944;9.240;2022-08-16T00:16:57;5.27;;;2.80;;
11819;SDS011;5967;48.944;9.240;2022-08-16T00:19:26;2.80;;;2.50;;
11819;SDS011;5967;48.944;9.240;2022-08-16T00:21:55;5.00;;;3.27;;
11819;SDS011;5967;48.944;9.240;2022-08-16T00:24:21;4.53;;;2.77;;
11819;SDS011;5967;48.944;9.240;2022-08-16T00:26:51;3.33;;;2.50;;
11819;SDS011;5967;48.944;9.240;2022-08-16T00:29:17;6.13;;;3.03;;
11819;SDS011;5967;48.944;9.240;2022-08-16T00:31:44;4.93;;;2.60;;
11819;SDS011;5967;48.944;9.240;2022-08-16T00:34:11;3.17;;;2.67;;
11819;SDS011;5967;48.944;9.240;2022-08-16T00:36:37;3.23;;;2.93;;
11819;SDS011;5967;48.944;9.240;2022-08-16T00:39:03;4.57;;;3.27;;
11819;SDS011;5967;48.944;9.240;2022-08-16T00:41:29;4.57;;;2.60;;
11819;SDS011;5967;48.944;9.240;2022-08-16T00:43:56;3.20;;;2.70;;
11819;SDS011;5967;48.944;9.240;2022-08-16T00:46:25;3.80;;;2.70;;
11819;SDS011;5967;48.944;9.240;2022-08-16T00:48:55;4.03;;;3.00;;
11819;SDS011;5967;48.944;9.240;2022-08-16T00:51:22;3.00;;;2.70;;
11819;SDS011;5967;48.944;9.240;2022-08-16T00:53:49;2.97;;;2.40;;
11819;SDS011;5967;48.944;9.240;2022-08-16T00:56:18;4.90;;;2.60;;
11819;SDS011;5967;48.944;9.240;2022-08-16T00:58:47;3.03;;;2.63;;
11819;SDS011;5967;48.944;9.240;2022-08-16T01:01:13;4.33;;;2.40;;
11819;SDS011;5967;48.944;9.240;2022-08-16T01:03:41;3.53;;;2.43;;
11819;SDS011;5967;48.944;9.240;2022-08-16T01:06:10;5.37;;;2.67;;
11819;SDS011;5967;48.944;9.240;2022-08-16T01:08:36;4.43;;;2.77;;
11819;SDS011;5967;48.944;9.240;2022-08-16T01:11:04;3.07;;;2.60;;
11819;SDS011;5967;48.944;9.240;2022-08-16T01:13:32;3.80;;;2.77;;
11819;SDS011;5967;48.944;9.240;2022-08-16T01:16:01;6.00;;;2.67;;
11819;SDS011;5967;48.944;9.240;2022-08-16T01:18:51;7.00;;;2.90;;
11819;SDS011;5967;48.944;9.240;2022-08-16T01:24:24;3.73;;;3.13;;
11819;SDS011;5967;48.944;9.240;2022-08-16T01:26:59;3.40;;;2.70;;
11819;SDS011;5967;48.944;9.240;2022-08-16T01:29:36;6.13;;;2.63;;
11819;SDS011;5967;48.944;9.240;2022-08-16T01:32:05;4.17;;;3.00;;
11819;SDS011;5967;48.944;9.240;2022-08-16T01:34:31;3.83;;;2.87;;
11819;SDS011;5967;48.944;9.240;2022-08-16T01:36:58;3.10;;;2.80;;
11819;SDS011;5967;48.944;9.240;2022-08-16T01:39:29;3.80;;;2.80;;
11819;SDS011;5967;48.944;9.240;2022-08-16T01:41:55;3.70;;;2.60;;
11819;SDS011;5967;48.944;9.240;2022-08-16T01:44:21;5.50;;;3.40;;
11819;SDS011;5967;48.944;9.240;2022-08-16T01:46:47;5.07;;;2.87;;
11819;SDS011;5967;48.944;9.240;2022-08-16T01:49:22;3.90;;;2.97;;
11819;SDS011;5967;48.944;9.240;2022-08-16T01:51:57;5.33;;;2.87;;
11819;SDS011;5967;48.944;9.240;2022-08-16T01:54:29;4.13;;;2.90;;
11819;SDS011;5967;48.944;9.240;2022-08-16T01:56:55;3.77;;;2.70;;
11819;SDS011;5967;48.944;9.240;2022-08-16T01:59:21;4.33;;;2.80;;
11819;SDS011;5967;48.944;9.240;2022-08-16T02:01:49;5.30;;;3.00;;
11819;SDS011;5967;48.944;9.240;2022-08-16T02:04:16;2.80;;;2.47;;
11819;SDS011;5967;48.944;9.240;2022-08-16T02:06:43;3.30;;;2.67;;
11819;SDS011;5967;48.944;9.240;2022-08-16T02:09:09;4.77;;;2.70;;
11819;SDS011;5967;48.944;9.240;2022-08-16T02:11:35;3.27;;;2.77;;
11819;SDS011;5967;48.944;9.240;2022-08-16T02:14:03;4.23;;;2.80;;
11819;SDS011;5967;48.944;9.240;2022-08-16T02:16:29;5.10;;;2.90;;
11819;SDS011;5967;48.944;9.240;2022-08-16T02:18:55;5.03;;;3.03;;
11819;SDS011;5967;48.944;9.240;2022-08-16T02:21:20;5.13;;;2.97;;
11819;SDS011;5967;48.944;9.240;2022-08-16T02:23:46;5.13;;;2.70;;
11819;SDS011;5967;48.944;9.240;2022-08-16T02:26:12;4.07;;;2.87;;
11819;SDS011;5967;48.944;9.240;2022-08-16T02:28:39;4.00;;;2.80;;
11819;SDS011;5967;48.944;9.240;2022-08-16T02:31:09;4.10;;;2.73;;
11819;SDS011;5967;48.944;9.240;2022-08-16T02:33:36;3.40;;;3.00;;
11819;SDS011;5967;48.944;9.240;2022-08-16T02:36:03;3.27;;;2.60;;
11819;SDS011;5967;48.944;9.240;2022-08-16T02:38:30;3.73;;;3.20;;
11819;SDS011;5967;48.944;9.240;2022-08-16T02:40:57;7.57;;;3.13;;
11819;SDS011;5967;48.944;9.240;2022-08-16T02:43:26;5.23;;;2.83;;
11819;SDS011;5967;48.944;9.240;2022-08-16T02:45:53;6.73;;;2.43;;
11819;SDS011;5967;48.944;9.240;2022-08-16T02:48:22;3.20;;;2.90;;
11819;SDS011;5967;48.944;9.240;2022-08-16T02:50:48;5.13;;;3.17;;
11819;SDS011;5967;48.944;9.240;2022-08-16T02:53:15;4.27;;;2.50;;
11819;SDS011;5967;48.944;9.240;2022-08-16T02:55:40;5.77;;;3.30;;
11819;SDS011;5967;48.944;9.240;2022-08-16T02:58:06;5.13;;;2.97;;
11819;SDS011;5967;48.944;9.240;2022-08-16T03:00:32;3.27;;;2.97;;
11819;SDS011;5967;48.944;9.240;2022-08-16T03:02:58;6.27;;;3.30;;
11819;SDS011;5967;48.944;9.240;2022-08-16T03:05:24;7.37;;;2.80;;
11819;SDS011;5967;48.944;9.240;2022-08-16T03:07:50;4.47;;;3.07;;
11819;SDS011;5967;48.944;9.240;2022-08-16T03:10:16;3.60;;;2.97;;
11819;SDS011;5967;48.944;9.240;2022-08-16T03:12:43;5.10;;;3.17;;
11819;SDS011;5967;48.944;9.240;2022-08-16T03:15:11;3.33;;;3.03;;
11819;SDS011;5967;48.944;9.240;2022-08-16T03:17:37;5.23;;;3.23;;
11819;SDS011;5967;48.944;9.240;2022-08-16T03:20:05;4.67;;;3.17;;
11819;SDS011;5967;48.944;9.240;2022-08-16T03:22:33;7.53;;;3.57;;
11819;SDS011;5967;48.944;9.240;2022-08-16T03:24:59;7.13;;;3.37;;
11819;SDS011;5967;48.944;9.240;2022-08-16T03:27:26;7.67;;;3.43;;
11819;SDS011;5967;48.944;9.240;2022-08-16T03:29:53;4.33;;;3.20;;
11819;SDS011;5967;48.944;9.240;2022-08-16T03:32:18;3.67;;;3.30;;
11819;SDS011;5967;48.944;9.240;2022-08-16T03:34:44;3.80;;;3.40;;
11819;SDS011;5967;48.944;9.240;2022-08-16T03:37:10;6.10;;;3.57;;
11819;SDS011;5967;48.944;9.240;2022-08-16T03:39:36;5.00;;;3.20;;
11819;SDS011;5967;48.944;9.240;2022-08-16T03:42:03;5.47;;;3.20;;
11819;SDS011;5967;48.944;9.240;2022-08-16T03:44:30;4.87;;;3.43;;
11819;SDS011;5967;48.944;9.240;2022-08-16T03:46:56;8.60;;;3.30;;
11819;SDS011;5967;48.944;9.240;2022-08-16T03:49:22;4.27;;;2.97;;
11819;SDS011;5967;48.944;9.240;2022-08-16T03:51:48;3.17;;;2.67;;
11819;SDS011;5967;48.944;9.240;2022-08-16T03:54:14;6.17;;;3.43;;
11819;SDS011;5967;48.944;9.240;2022-08-16T03:56:40;4.63;;;3.60;;
11819;SDS011;5967;48.944;9.240;2022-08-16T03:59:06;4.17;;;3.10;;
11819;SDS011;5967;48.944;9.240;2022-08-16T04:01:31;3.40;;;3.10;;
11819;SDS011;5967;48.944;9.240;2022-08-16T04:03:57;6.13;;;3.13;;
11819;SDS011;5967;48.944;9.240;2022-08-16T04:06:23;4.37;;;3.00;;
11819;SDS011;5967;48.944;9.240;2022-08-16T04:08:48;4.47;;;3.63;;
11819;SDS011;5967;48.944;9.240;2022-08-16T04:11:14;5.90;;;3.30;;
11819;SDS011;5967;48.944;9.240;2022-08-16T04:13:40;4.87;;;3.33;;
11819;SDS011;5967;48.944;9.240;2022-08-16T04:16:06;4.67;;;3.43;;
11819;SDS011;5967;48.944;9.240;2022-08-16T04:18:32;4.00;;;3.60;;
11819;SDS011;5967;48.944;9.240;2022-08-16T04:21:00;4.00;;;3.37;;
11819;SDS011;5967;48.944;9.240;2022-08-16T04:23:26;5.63;;;3.40;;
11819;SDS011;5967;48.944;9.240;2022-08-16T04:25:52;4.43;;;3.33;;
11819;SDS011;5967;48.944;9.240;2022-08-16T04:28:17;6.93;;;3.50;;
11819;SDS011;5967;48.944;9.240;2022-08-16T04:30:43;4.67;;;3.40;;
11819;SDS011;5967;48.944;9.240;2022-08-16T04:33:09;5.73;;;3.30;;
11819;SDS011;5967;48.944;9.240;2022-08-16T04:35:35;4.53;;;3.20;;
11819;SDS011;5967;48.944;9.240;2022-08-16T04:38:01;5.00;;;3.50;;
11819;SDS011;5967;48.944;9.240;2022-08-16T04:40:27;3.70;;;3.30;;
11819;SDS011;5967;48.944;9.240;2022-08-16T04:42:53;5.30;;;3.73;;
11819;SDS011;5967;48.944;9.240;2022-08-16T04:45:19;3.43;;;3.13;;
11819;SDS011;5967;48.944;9.240;2022-08-16T04:47:45;4.77;;;3.00;;
11819;SDS011;5967;48.944;9.240;2022-08-16T04:50:16;4.13;;;3.73;;
11819;SDS011;5967;48.944;9.240;2022-08-16T04:52:44;5.03;;;3.60;;
11819;SDS011;5967;48.944;9.240;2022-08-16T04:55:12;5.37;;;3.93;;
11819;SDS011;5967;48.944;9.240;2022-08-16T04:57:47;6.20;;;3.83;;
11819;SDS011;5967;48.944;9.240;2022-08-16T05:00:15;5.47;;;3.57;;
11819;SDS011;5967;48.944;9.240;2022-08-16T05:02:43;4.00;;;3.60;;
11819;SDS011;5967;48.944;9.240;2022-08-16T05:05:10;3.80;;;3.40;;
11819;SDS011;5967;48.944;9.240;2022-08-16T05:07:37;6.67;;;3.60;;
11819;SDS011;5967;48.944;9.240;2022-08-16T05:10:04;4.80;;;3.50;;
11819;SDS011;5967;48.944;9.240;2022-08-16T05:12:31;4.67;;;3.50;;
11819;SDS011;5967;48.944;9.240;2022-08-16T05:14:57;4.00;;;3.57;;
11819;SDS011;5967;48.944;9.240;2022-08-16T05:17:23;3.50;;;3.20;;
11819;SDS011;5967;48.944;9.240;2022-08-16T05:19:49;3.57;;;3.13;;
11819;SDS011;5967;48.944;9.240;2022-08-16T05:22:15;5.40;;;3.63;;
11819;SDS011;5967;48.944;9.240;2022-08-16T05:24:41;4.63;;;3.27;;
11819;SDS011;5967;48.944;9.240;2022-08-16T05:27:06;5.23;;;3.30;;
11819;SDS011;5967;48.944;9.240;2022-08-16T05:29:32;3.80;;;2.87;;
11819;SDS011;5967;48.944;9.240;2022-08-16T05:31:58;4.60;;;3.50;;
11819;SDS011;5967;48.944;9.240;2022-08-16T05:34:25;6.17;;;3.40;;
11819;SDS011;5967;48.944;9.240;2022-08-16T05:36:51;4.33;;;3.37;;
11819;SDS011;5967;48.944;9.240;2022-08-16T05:39:21;3.80;;;3.50;;
11819;SDS011;5967;48.944;9.240;2022-08-16T05:41:48;4.27;;;3.30;;
11819;SDS011;5967;48.944;9.240;2022-08-16T05:44:15;6.63;;;3.80;;
11819;SDS011;5967;48.944;9.240;2022-08-16T05:46:42;6.60;;;3.30;;
11819;SDS011;5967;48.944;9.240;2022-08-16T05:49:09;5.03;;;3.80;;
11819;SDS011;5967;48.944;9.240;2022-08-16T05:51:41;5.23;;;3.33;;
11819;SDS011;5967;48.944;9.240;2022-08-16T05:54:07;6.23;;;3.83;;
11819;SDS011;5967;48.944;9.240;2022-08-16T05:56:33;4.93;;;3.47;;
11819;SDS011;5967;48.944;9.240;2022-08-16T05:58:59;5.33;;;3.30;;
11819;SDS011;5967;48.944;9.240;2022-08-16T06:01:24;5.07;;;3.20;;
11819;SDS011;5967;48.944;9.240;2022-08-16T06:03:51;4.20;;;3.70;;
11819;SDS011;5967;48.944;9.240;2022-08-16T06:06:17;7.97;;;3.63;;
11819;SDS011;5967;48.944;9.240;2022-08-16T06:08:43;6.60;;;3.90;;
11819;SDS011;5967;48.944;9.240;2022-08-16T06:11:08;6.13;;;3.97;;
11819;SDS011;5967;48.944;9.240;2022-08-16T06:13:34;5.40;;;3.77;;
11819;SDS011;5967;48.944;9.240;2022-08-16T06:16:02;9.03;;;3.70;;
11819;SDS011;5967;48.944;9.240;2022-08-16T06:18:29;5.13;;;3.70;;
11819;SDS011;5967;48.944;9.240;2022-08-16T06:20:55;5.30;;;3.50;;
11819;SDS011;5967;48.944;9.240;2022-08-16T06:23:21;3.97;;;3.60;;
11819;SDS011;5967;48.944;9.240;2022-08-16T06:25:47;3.73;;;3.33;;
11819;SDS011;5967;48.944;9.240;2022-08-16T06:28:13;5.10;;;3.53;;
11819;SDS011;5967;48.944;9.240;2022-08-16T06:30:39;5.37;;;3.53;;
11819;SDS011;5967;48.944;9.240;2022-08-16T06:33:05;5.40;;;3.40;;
11819;SDS011;5967;48.944;9.240;2022-08-16T06:35:31;5.20;;;3.40;;
11819;SDS011;5967;48.944;9.240;2022-08-16T06:37:56;4.20;;;3.80;;
11819;SDS011;5967;48.944;9.240;2022-08-16T06:40:22;4.30;;;3.30;;
11819;SDS011;5967;48.944;9.240;2022-08-16T06:42:49;5.30;;;3.50;;
11819;SDS011;5967;48.944;9.240;2022-08-16T06:45:20;5.87;;;3.63;;
11819;SDS011;5967;48.944;9.240;2022-08-16T06:47:46;5.93;;;3.93;;
11819;SDS011;5967;48.944;9.240;2022-08-16T06:50:12;5.40;;;3.30;;
11819;SDS011;5967;48.944;9.240;2022-08-16T06:52:37;4.50;;;3.43;;
11819;SDS011;5967;48.944;9.240;2022-08-16T06:55:04;4.05;;;3.65;;
11819;SDS011;5967;48.944;9.240;2022-08-16T06:57:31;6.27;;;4.00;;
11819;SDS011;5967;48.944;9.240;2022-08-16T06:59:57;4.00;;;3.53;;
11819;SDS011;5967;48.944;9.240;2022-08-16T07:02:23;6.13;;;3.30;;
11819;SDS011;5967;48.944;9.240;2022-08-16T07:04:49;4.37;;;3.93;;
11819;SDS011;5967;48.944;9.240;2022-08-16T07:07:17;17.40;;;4.25;;
11819;SDS011;5967;48.944;9.240;2022-08-16T07:09:44;8.88;;;4.05;;
11819;SDS011;5967;48.944;9.240;2022-08-16T07:12:14;4.78;;;3.38;;
11819;SDS011;5967;48.944;9.240;2022-08-16T07:14:40;4.38;;;3.70;;
11819;SDS011;5967;48.944;9.240;2022-08-16T07:17:05;12.32;;;3.83;;
11819;SDS011;5967;48.944;9.240;2022-08-16T07:19:31;4.93;;;3.45;;
11819;SDS011;5967;48.944;9.240;2022-08-16T07:21:57;4.07;;;3.60;;
11819;SDS011;5967;48.944;9.240;2022-08-16T07:24:26;6.50;;;3.45;;
11819;SDS011;5967;48.944;9.240;2022-08-16T07:26:53;5.85;;;3.65;;
11819;SDS011;5967;48.944;9.240;2022-08-16T07:29:19;3.85;;;3.17;;
11819;SDS011;5967;48.944;9.240;2022-08-16T07:31:44;6.45;;;3.90;;
11819;SDS011;5967;48.944;9.240;2022-08-16T07:34:10;6.38;;;4.20;;
11819;SDS011;5967;48.944;9.240;2022-08-16T07:36:36;8.07;;;3.97;;
11819;SDS011;5967;48.944;9.240;2022-08-16T07:39:02;4.43;;;3.50;;
11819;SDS011;5967;48.944;9.240;2022-08-16T07:41:28;5.38;;;3.90;;
11819;SDS011;5967;48.944;9.240;2022-08-16T07:43:54;6.05;;;3.88;;
11819;SDS011;5967;48.944;9.240;2022-08-16T07:46:20;4.68;;;3.65;;
11819;SDS011;5967;48.944;9.240;2022-08-16T07:48:46;6.30;;;3.60;;
11819;SDS011;5967;48.944;9.240;2022-08-16T07:51:12;7.25;;;3.90;;
11819;SDS011;5967;48.944;9.240;2022-08-16T07:53:37;6.35;;;3.80;;
11819;SDS011;5967;48.944;9.240;2022-08-16T07:56:03;4.10;;;3.63;;
11819;SDS011;5967;48.944;9.240;2022-08-16T07:58:30;5.40;;;3.80;;
11819;SDS011;5967;48.944;9.240;2022-08-16T08:00:58;4.82;;;3.92;;
11819;SDS011;5967;48.944;9.240;2022-08-16T08:03:25;5.40;;;3.78;;
11819;SDS011;5967;48.944;9.240;2022-08-16T08:05:51;6.55;;;4.00;;
11819;SDS011;5967;48.944;9.240;2022-08-16T08:08:17;4.10;;;3.63;;
11819;SDS011;5967;48.944;9.240;2022-08-16T08:10:43;3.83;;;3.42;;
11819;SDS011;5967;48.944;9.240;2022-08-16T08:13:08;6.20;;;3.72;;
11819;SDS011;5967;48.944;9.240;2022-08-16T08:15:34;7.07;;;4.13;;
11819;SDS011;5967;48.944;9.240;2022-08-16T08:18:00;6.28;;;4.18;;
11819;SDS011;5967;48.944;9.240;2022-08-16T08:20:26;6.10;;;3.40;;
11819;SDS011;5967;48.944;9.240;2022-08-16T08:22:53;6.97;;;4.20;;
11819;SDS011;5967;48.944;9.240;2022-08-16T08:25:20;6.10;;;3.90;;
11819;SDS011;5967;48.944;9.240;2022-08-16T08:27:46;6.88;;;3.70;;
11819;SDS011;5967;48.944;9.240;2022-08-16T08:30:12;6.72;;;3.90;;
11819;SDS011;5967;48.944;9.240;2022-08-16T08:32:38;7.75;;;4.40;;
11819;SDS011;5967;48.944;9.240;2022-08-16T08:35:05;5.63;;;4.22;;
11819;SDS011;5967;48.944;9.240;2022-08-16T08:37:33;5.68;;;3.80;;
11819;SDS011;5967;48.944;9.240;2022-08-16T08:40:00;7.50;;;3.80;;
11819;SDS011;5967;48.944;9.240;2022-08-16T08:42:27;11.40;;;4.53;;
11819;SDS011;5967;48.944;9.240;2022-08-16T08:44:53;4.53;;;3.60;;
11819;SDS011;5967;48.944;9.240;2022-08-16T08:47:19;4.63;;;4.18;;
11819;SDS011;5967;48.944;9.240;2022-08-16T08:49:45;6.28;;;4.50;;
11819;SDS011;5967;48.944;9.240;2022-08-16T08:52:11;5.28;;;4.28;;
11819;SDS011;5967;48.944;9.240;2022-08-16T08:54:37;4.97;;;4.20;;
11819;SDS011;5967;48.944;9.240;2022-08-16T08:57:03;6.00;;;3.88;;
11819;SDS011;5967;48.944;9.240;2022-08-16T08:59:30;4.55;;;3.88;;
11819;SDS011;5967;48.944;9.240;2022-08-16T09:01:56;5.15;;;3.92;;
11819;SDS011;5967;48.944;9.240;2022-08-16T09:04:24;4.72;;;3.70;;
11819;SDS011;5967;48.944;9.240;2022-08-16T09:06:52;6.20;;;3.85;;
11819;SDS011;5967;48.944;9.240;2022-08-16T09:09:18;6.22;;;4.00;;
11819;SDS011;5967;48.944;9.240;2022-08-16T09:11:45;5.88;;;3.83;;
11819;SDS011;5967;48.944;9.240;2022-08-16T09:14:11;6.85;;;3.85;;
11819;SDS011;5967;48.944;9.240;2022-08-16T09:16:36;4.45;;;4.05;;
11819;SDS011;5967;48.944;9.240;2022-08-16T09:19:02;8.23;;;3.85;;
11819;SDS011;5967;48.944;9.240;2022-08-16T09:21:29;6.53;;;3.88;;
11819;SDS011;5967;48.944;9.240;2022-08-16T09:23:56;7.28;;;4.28;;
11819;SDS011;5967;48.944;9.240;2022-08-16T09:26:22;8.05;;;4.63;;
11819;SDS011;5967;48.944;9.240;2022-08-16T09:28:48;4.47;;;3.60;;
11819;SDS011;5967;48.944;9.240;2022-08-16T09:31:15;5.88;;;3.95;;
11819;SDS011;5967;48.944;9.240;2022-08-16T09:33:42;5.38;;;4.13;;
11819;SDS011;5967;48.944;9.240;2022-08-16T09:36:08;6.60;;;4.43;;
11819;SDS011;5967;48.944;9.240;2022-08-16T09:38:35;5.28;;;4.22;;
11819;SDS011;5967;48.944;9.240;2022-08-16T09:41:03;5.22;;;3.97;;
11819;SDS011;5967;48.944;9.240;2022-08-16T09:43:31;5.15;;;3.78;;
11819;SDS011;5967;48.944;9.240;2022-08-16T09:45:57;4.80;;;3.70;;
11819;SDS011;5967;48.944;9.240;2022-08-16T09:48:24;5.18;;;3.97;;
11819;SDS011;5967;48.944;9.240;2022-08-16T09:50:50;6.70;;;3.72;;
11819;SDS011;5967;48.944;9.240;2022-08-16T09:53:16;6.10;;;3.63;;
11819;SDS011;5967;48.944;9.240;2022-08-16T09:55:46;6.28;;;4.30;;
11819;SDS011;5967;48.944;9.240;2022-08-16T09:58:13;4.90;;;3.67;;
11819;SDS011;5967;48.944;9.240;2022-08-16T10:00:43;5.65;;;3.83;;
11819;SDS011;5967;48.944;9.240;2022-08-16T10:03:09;5.22;;;3.72;;
11819;SDS011;5967;48.944;9.240;2022-08-16T10:05:34;6.40;;;3.70;;
11819;SDS011;5967;48.944;9.240;2022-08-16T10:08:05;6.93;;;3.72;;
11819;SDS011;5967;48.944;9.240;2022-08-16T10:10:32;5.45;;;3.55;;
11819;SDS011;5967;48.944;9.240;2022-08-16T10:12:58;6.40;;;3.83;;
11819;SDS011;5967;48.944;9.240;2022-08-16T10:15:38;4.18;;;3.78;;
11819;SDS011;5967;48.944;9.240;2022-08-16T10:18:06;6.68;;;4.03;;
11819;SDS011;5967;48.944;9.240;2022-08-16T10:20:34;3.45;;;3.15;;
11819;SDS011;5967;48.944;9.240;2022-08-16T10:23:06;4.50;;;3.58;;
11819;SDS011;5967;48.944;9.240;2022-08-16T10:25:37;5.53;;;3.83;;
11819;SDS011;5967;48.944;9.240;2022-08-16T10:28:05;4.75;;;3.60;;
11819;SDS011;5967;48.944;9.240;2022-08-16T10:30:31;6.72;;;3.83;;
11819;SDS011;5967;48.944;9.240;2022-08-16T10:32:56;7.00;;;3.90;;
11819;SDS011;5967;48.944;9.240;2022-08-16T10:35:22;6.43;;;3.92;;
11819;SDS011;5967;48.944;9.240;2022-08-16T10:37:49;5.00;;;3.70;;
11819;SDS011;5967;48.944;9.240;2022-08-16T10:40:15;6.30;;;3.90;;
11819;SDS011;5967;48.944;9.240;2022-08-16T10:42:41;6.45;;;3.90;;
11819;SDS011;5967;48.944;9.240;2022-08-16T10:45:07;5.05;;;3.97;;
11819;SDS011;5967;48.944;9.240;2022-08-16T10:47:34;6.88;;;3.78;;
11819;SDS011;5967;48.944;9.240;2022-08-16T10:50:01;4.90;;;3.70;;
11819;SDS011;5967;48.944;9.240;2022-08-16T10:52:28;5.85;;;3.97;;
11819;SDS011;5967;48.944;9.240;2022-08-16T10:54:56;5.03;;;4.00;;
11819;SDS011;5967;48.944;9.240;2022-08-16T10:57:21;5.47;;;3.42;;
11819;SDS011;5967;48.944;9.240;2022-08-16T10:59:47;5.78;;;3.80;;
11819;SDS011;5967;48.944;9.240;2022-08-16T11:02:13;5.20;;;3.63;;
11819;SDS011;5967;48.944;9.240;2022-08-16T11:04:38;7.07;;;3.38;;
11819;SDS011;5967;48.944;9.240;2022-08-16T11:07:05;5.88;;;3.67;;
11819;SDS011;5967;48.944;9.240;2022-08-16T11:09:30;5.88;;;3.97;;
11819;SDS011;5967;48.944;9.240;2022-08-16T11:11:56;5.25;;;3.90;;
11819;SDS011;5967;48.944;9.240;2022-08-16T11:14:22;5.78;;;3.85;;
11819;SDS011;5967;48.944;9.240;2022-08-16T11:16:48;9.50;;;3.67;;
11819;SDS011;5967;48.944;9.240;2022-08-16T11:19:14;4.68;;;3.60;;
11819;SDS011;5967;48.944;9.240;2022-08-16T11:21:41;9.80;;;3.60;;
11819;SDS011;5967;48.944;9.240;2022-08-16T11:24:08;5.22;;;3.47;;
11819;SDS011;5967;48.944;9.240;2022-08-16T11:26:34;4.68;;;3.72;;
11819;SDS011;5967;48.944;9.240;2022-08-16T11:28:59;5.18;;;3.90;;
11819;SDS011;5967;48.944;9.240;2022-08-16T11:31:25;4.30;;;3.80;;
11819;SDS011;5967;48.944;9.240;2022-08-16T11:33:51;5.53;;;3.70;;
11819;SDS011;5967;48.944;9.240;2022-08-16T11:36:17;4.25;;;3.60;;
11819;SDS011;5967;48.944;9.240;2022-08-16T11:38:43;4.47;;;3.60;;
11819;SDS011;5967;48.944;9.240;2022-08-16T11:41:10;6.10;;;3.38;;
11819;SDS011;5967;48.944;9.240;2022-08-16T11:43:36;3.75;;;3.30;;
11819;SDS011;5967;48.944;9.240;2022-08-16T11:46:06;4.43;;;3.65;;
11819;SDS011;5967;48.944;9.240;2022-08-16T11:48:34;4.90;;;3.35;;
11819;SDS011;5967;48.944;9.240;2022-08-16T11:51:01;4.55;;;3.60;;
11819;SDS011;5967;48.944;9.240;2022-08-16T11:53:27;4.25;;;3.78;;
11819;SDS011;5967;48.944;9.240;2022-08-16T11:55:54;5.65;;;3.60;;
11819;SDS011;5967;48.944;9.240;2022-08-16T11:58:25;5.22;;;3.70;;
11819;SDS011;5967;48.944;9.240;2022-08-16T12:00:53;6.05;;;3.67;;
11819;SDS011;5967;48.944;9.240;2022-08-16T12:03:20;3.90;;;3.33;;
11819;SDS011;5967;48.944;9.240;2022-08-16T12:05:48;4.03;;;3.60;;
11819;SDS011;5967;48.944;9.240;2022-08-16T12:08:14;4.25;;;3.45;;
11819;SDS011;5967;48.944;9.240;2022-08-16T12:10:41;5.63;;;3.38;;
11819;SDS011;5967;48.944;9.240;2022-08-16T12:13:09;8.07;;;3.80;;
11819;SDS011;5967;48.944;9.240;2022-08-16T12:15:35;5.70;;;3.65;;
11819;SDS011;5967;48.944;9.240;2022-08-16T12:18:03;5.07;;;3.70;;
11819;SDS011;5967;48.944;9.240;2022-08-16T12:20:31;3.80;;;3.42;;
11819;SDS011;5967;48.944;9.240;2022-08-16T12:22:58;6.40;;;3.58;;
11819;SDS011;5967;48.944;9.240;2022-08-16T12:25:25;6.82;;;3.72;;
11819;SDS011;5967;48.944;9.240;2022-08-16T12:27:53;4.35;;;3.70;;
11819;SDS011;5967;48.944;9.240;2022-08-16T12:30:22;4.80;;;3.85;;
11819;SDS011;5967;48.944;9.240;2022-08-16T12:32:54;6.45;;;4.00;;
11819;SDS011;5967;48.944;9.240;2022-08-16T12:35:22;4.88;;;3.65;;
11819;SDS011;5967;48.944;9.240;2022-08-16T12:37:50;4.45;;;3.80;;
11819;SDS011;5967;48.944;9.240;2022-08-16T12:40:19;5.00;;;3.45;;
11819;SDS011;5967;48.944;9.240;2022-08-16T12:42:49;5.50;;;3.60;;
11819;SDS011;5967;48.944;9.240;2022-08-16T12:45:17;6.28;;;3.67;;
11819;SDS011;5967;48.944;9.240;2022-08-16T12:47:46;6.93;;;3.65;;
11819;SDS011;5967;48.944;9.240;2022-08-16T12:50:31;3.90;;;3.22;;
11819;SDS011;5967;48.944;9.240;2022-08-16T12:52:56;4.90;;;3.67;;
11819;SDS011;5967;48.944;9.240;2022-08-16T12:55:22;4.13;;;3.60;;
11819;SDS011;5967;48.944;9.240;2022-08-16T12:57:52;5.30;;;3.63;;
11819;SDS011;5967;48.944;9.240;2022-08-16T13:00:19;4.82;;;3.42;;
11819;SDS011;5967;48.944;9.240;2022-08-16T13:02:45;4.75;;;3.60;;
11819;SDS011;5967;48.944;9.240;2022-08-16T13:05:12;6.32;;;3.83;;
11819;SDS011;5967;48.944;9.240;2022-08-16T13:07:39;7.20;;;3.80;;
11819;SDS011;5967;48.944;9.240;2022-08-16T13:10:06;8.07;;;3.55;;
11819;SDS011;5967;48.944;9.240;2022-08-16T13:12:38;6.55;;;3.70;;
11819;SDS011;5967;48.944;9.240;2022-08-16T13:15:12;4.88;;;3.80;;
11819;SDS011;5967;48.944;9.240;2022-08-16T13:17:40;5.15;;;3.35;;
11819;SDS011;5967;48.944;9.240;2022-08-16T13:20:09;5.20;;;3.42;;
11819;SDS011;5967;48.944;9.240;2022-08-16T13:22:38;4.07;;;3.13;;
11819;SDS011;5967;48.944;9.240;2022-08-16T13:25:20;5.85;;;3.40;;
11819;SDS011;5967;48.944;9.240;2022-08-16T13:27:47;3.65;;;3.35;;
11819;SDS011;5967;48.944;9.240;2022-08-16T13:30:14;4.38;;;3.88;;
11819;SDS011;5967;48.944;9.240;2022-08-16T13:32:40;4.78;;;3.65;;
11819;SDS011;5967;48.944;9.240;2022-08-16T13:35:05;5.05;;;3.72;;
11819;SDS011;5967;48.944;9.240;2022-08-16T13:37:32;4.97;;;3.47;;
11819;SDS011;5967;48.944;9.240;2022-08-16T13:39:57;5.45;;;3.22;;
11819;SDS011;5967;48.944;9.240;2022-08-16T13:42:23;3.67;;;3.08;;
11819;SDS011;5967;48.944;9.240;2022-08-16T13:44:49;3.58;;;3.25;;
11819;SDS011;5967;48.944;9.240;2022-08-16T13:47:15;4.45;;;3.08;;
11819;SDS011;5967;48.944;9.240;2022-08-16T13:49:41;4.93;;;2.85;;
11819;SDS011;5967;48.944;9.240;2022-08-16T13:52:07;4.03;;;3.13;;
11819;SDS011;5967;48.944;9.240;2022-08-16T13:54:34;4.50;;;3.50;;
11819;SDS011;5967;48.944;9.240;2022-08-16T13:57:00;3.25;;;2.90;;
11819;SDS011;5967;48.944;9.240;2022-08-16T13:59:26;4.63;;;3.30;;
11819;SDS011;5967;48.944;9.240;2022-08-16T14:01:53;3.80;;;3.10;;
11819;SDS011;5967;48.944;9.240;2022-08-16T14:04:21;6.60;;;3.42;;
11819;SDS011;5967;48.944;9.240;2022-08-16T14:06:48;5.35;;;3.55;;
11819;SDS011;5967;48.944;9.240;2022-08-16T14:09:14;3.75;;;3.22;;
11819;SDS011;5967;48.944;9.240;2022-08-16T14:11:39;3.47;;;2.95;;
11819;SDS011;5967;48.944;9.240;2022-08-16T14:14:05;6.28;;;3.15;;
11819;SDS011;5967;48.944;9.240;2022-08-16T14:16:31;3.90;;;3.00;;
11819;SDS011;5967;48.944;9.240;2022-08-16T14:18:57;4.13;;;2.90;;
11819;SDS011;5967;48.944;9.240;2022-08-16T14:21:23;3.30;;;3.03;;
11819;SDS011;5967;48.944;9.240;2022-08-16T14:23:49;4.32;;;2.97;;
11819;SDS011;5967;48.944;9.240;2022-08-16T14:26:16;5.05;;;3.17;;
11819;SDS011;5967;48.944;9.240;2022-08-16T14:28:42;4.53;;;2.97;;
11819;SDS011;5967;48.944;9.240;2022-08-16T14:31:08;6.13;;;2.90;;
11819;SDS011;5967;48.944;9.240;2022-08-16T14:33:34;4.15;;;3.45;;
11819;SDS011;5967;48.944;9.240;2022-08-16T14:36:03;4.22;;;2.90;;
11819;SDS011;5967;48.944;9.240;2022-08-16T14:38:30;3.05;;;2.70;;
11819;SDS011;5967;48.944;9.240;2022-08-16T14:40:56;4.05;;;3.10;;
11819;SDS011;5967;48.944;9.240;2022-08-16T14:43:23;3.92;;;2.75;;
11819;SDS011;5967;48.944;9.240;2022-08-16T14:45:50;5.60;;;3.38;;
11819;SDS011;5967;48.944;9.240;2022-08-16T14:48:16;5.88;;;2.78;;
11819;SDS011;5967;48.944;9.240;2022-08-16T14:50:42;4.32;;;3.20;;
11819;SDS011;5967;48.944;9.240;2022-08-16T14:53:08;3.78;;;3.13;;
11819;SDS011;5967;48.944;9.240;2022-08-16T14:55:35;3.28;;;2.97;;
11819;SDS011;5967;48.944;9.240;2022-08-16T14:58:02;3.40;;;3.10;;
11819;SDS011;5967;48.944;9.240;2022-08-16T15:00:29;7.25;;;3.35;;
11819;SDS011;5967;48.944;9.240;2022-08-16T15:02:56;5.35;;;3.17;;